createdAt,value
2023-04-21T00:05:44.919Z,99.20
2023-04-21T00:15:46.670Z,99.50
2023-04-21T00:25:48.372Z,99.50
2023-04-21T00:45:52.192Z,99.80
2023-04-21T00:55:53.886Z,99.90
2023-04-21T01:05:56.266Z,99.80
2023-04-21T01:15:57.921Z,99.70
2023-04-21T01:25:59.582Z,99.80
2023-04-21T01:36:01.733Z,99.90
2023-04-21T01:46:05.022Z,99.90
2023-04-21T01:56:07.084Z,99.90
2023-04-21T02:06:08.762Z,99.90
2023-04-21T02:16:13.981Z,99.90
2023-04-21T02:26:16.218Z,99.90
2023-04-21T02:36:18.044Z,99.90
2023-04-21T02:46:19.734Z,99.90
2023-04-21T02:56:21.377Z,99.90
2023-04-21T03:06:23.010Z,99.90
2023-04-21T03:16:24.907Z,99.90
2023-04-21T03:26:26.672Z,99.90
2023-04-21T03:36:28.345Z,99.90
2023-04-21T03:46:30.176Z,99.90
2023-04-21T03:56:31.843Z,99.90
2023-04-21T04:06:34.091Z,99.90
2023-04-21T04:16:36.041Z,99.90
2023-04-21T04:26:40.624Z,99.90
2023-04-21T04:36:45.135Z,99.90
2023-04-21T04:46:47.068Z,99.90
2023-04-21T04:56:48.928Z,99.90
2023-04-21T05:06:50.765Z,99.90
2023-04-21T05:26:54.753Z,99.90
2023-04-21T05:36:56.491Z,99.90
2023-04-21T05:46:58.252Z,99.90
2023-04-21T05:59:13.380Z,99.90
2023-04-21T06:09:15.765Z,99.90
2023-04-21T06:19:17.483Z,99.90
2023-04-21T06:29:19.956Z,99.90
2023-04-21T06:39:21.637Z,99.90
2023-04-21T06:49:23.361Z,99.90
2023-04-21T06:59:25.561Z,99.90
2023-04-21T07:09:28.680Z,99.90
2023-04-21T07:19:30.384Z,99.90
2023-04-21T07:29:32.039Z,99.90
2023-04-21T07:39:33.697Z,99.70
2023-04-21T07:49:35.476Z,99.50
2023-04-21T07:59:37.141Z,99.00
2023-04-21T08:09:38.800Z,99.20
2023-04-21T08:19:40.607Z,97.20
2023-04-21T08:29:42.310Z,97.00
2023-04-21T08:39:43.955Z,96.70
2023-04-21T08:50:02.003Z,96.30
2023-04-21T09:00:07.348Z,95.80
2023-04-21T09:10:09.913Z,95.30
2023-04-21T09:20:17.660Z,94.50
2023-04-21T09:30:20.284Z,94.80
2023-04-21T09:40:21.976Z,93.40
2023-04-21T09:50:54.228Z,93.10
2023-04-21T10:00:47.701Z,92.80
2023-04-21T10:10:50.432Z,92.50
2023-04-21T10:21:04.812Z,91.40
2023-04-21T10:31:44.305Z,90.80
2023-04-21T10:41:46.395Z,90.90
2023-04-21T10:52:00.795Z,88.90
2023-04-21T11:02:05.208Z,87.10
2023-04-21T11:12:20.209Z,87.20
2023-04-21T11:22:23.841Z,87.20
2023-04-21T11:32:25.760Z,86.10
2023-04-21T11:42:28.178Z,85.40
2023-04-21T11:52:33.238Z,85.80
2023-04-21T12:02:35.476Z,83.20
2023-04-21T12:12:42.132Z,83.60
2023-04-21T12:22:44.344Z,82.60
2023-04-21T12:32:47.698Z,75.90
2023-04-21T12:42:49.492Z,73.80
2023-04-21T12:52:55.164Z,72.80
2023-04-21T13:02:56.940Z,72.50
2023-04-21T13:12:58.883Z,72.40
2023-04-21T13:23:00.726Z,68.20
2023-04-21T13:33:03.188Z,65.60
2023-04-21T13:43:05.516Z,63.70
2023-04-21T13:53:07.250Z,61.80
2023-04-21T14:03:09.819Z,56.60
2023-04-21T14:23:28.869Z,43.20
2023-04-21T14:33:30.894Z,39.00
2023-04-21T14:43:32.737Z,37.80
2023-04-21T14:53:34.570Z,30.60
2023-04-21T15:03:37.531Z,30.10
2023-04-21T15:13:39.365Z,29.50
2023-04-21T15:23:41.136Z,32.60
2023-04-21T15:33:42.977Z,35.00
2023-04-21T15:43:44.863Z,34.80
2023-04-21T15:53:49.524Z,34.20
2023-04-21T16:03:52.153Z,32.30
2023-04-21T16:13:54.163Z,33.90
2023-04-21T16:23:56.704Z,34.30
2023-04-21T16:33:59.818Z,34.60
2023-04-21T16:44:02.086Z,34.30
2023-04-21T16:54:03.880Z,35.60
2023-04-21T17:04:05.720Z,34.60
2023-04-21T17:14:07.478Z,35.30
2023-04-21T17:24:09.546Z,37.50
2023-04-21T17:34:11.233Z,39.20
2023-04-21T17:44:12.993Z,40.50
2023-04-21T17:54:14.638Z,41.90
2023-04-21T18:04:16.901Z,42.90
2023-04-21T18:14:19.321Z,44.00
2023-04-21T18:24:21.079Z,45.30
2023-04-21T18:34:22.882Z,46.30
2023-04-21T18:44:25.563Z,48.20
2023-04-21T18:54:27.258Z,49.30
2023-04-21T19:04:30.431Z,51.00
2023-04-21T19:14:42.455Z,51.80
2023-04-21T19:24:47.670Z,53.60
2023-04-21T19:34:49.324Z,54.40
2023-04-21T19:44:51.066Z,56.00
2023-04-21T19:54:52.824Z,56.60
2023-04-21T20:04:54.590Z,57.20
2023-04-21T20:14:56.487Z,58.10
2023-04-21T20:24:58.329Z,59.10
2023-04-21T20:34:59.980Z,60.40
2023-04-21T20:45:02.295Z,62.30
2023-04-21T20:55:04.145Z,65.90
2023-04-21T21:05:06.162Z,67.20
2023-04-21T21:15:08.226Z,68.50
2023-04-21T21:25:10.522Z,69.10
2023-04-21T21:35:12.251Z,69.90
2023-04-21T21:45:13.929Z,72.00
2023-04-21T21:55:15.584Z,73.30
2023-04-21T22:05:17.561Z,75.10
2023-04-21T22:15:19.685Z,77.40
2023-04-21T22:25:26.854Z,78.10
2023-04-21T22:35:29.482Z,80.30
2023-04-21T22:45:31.162Z,81.30
2023-04-21T22:55:32.860Z,83.80
2023-04-21T23:05:34.599Z,84.30
2023-04-21T23:15:36.632Z,85.40
2023-04-21T23:25:38.306Z,86.10
2023-04-21T23:35:40.027Z,86.90
2023-04-21T23:45:41.737Z,87.80
2023-04-21T23:55:43.451Z,88.40
